Time;durP1;ratioP1;P1;durP2;ratioP2;P2;SDS_P1;SDS_P2;PMS_P1;PMS_P2;Temp;Humidity;BMP_temperature;BMP_pressure;BME280_temperature;BME280_humidity;BME280_pressure;Samples;Min_cycle;Max_cycle;Signal;HPM_P1;HPM_P2
2021/11/20 00:00:47;;;;;;;25.65;12.23;;;;;;;;;;6198639;28;20117;-86
2021/11/20 00:03:49;;;;;;;25.75;12.43;;;;;;;;;;6192795;28;20132;-85
2021/11/20 00:06:54;;;;;;;27.95;12.30;;;;;;;;;;6190918;28;20052;-85
2021/11/20 00:09:56;;;;;;;24.75;11.48;;;;;;;;;;6185831;28;20050;-85
2021/11/20 00:13:08;;;;;;;25.27;11.35;;;;;;;;;;6169606;28;20049;-86
2021/11/20 00:16:11;;;;;;;22.52;11.38;;;;;;;;;;6172981;28;20462;-88
2021/11/20 00:19:13;;;;;;;20.95;11.50;;;;;;;;;;6178793;28;20046;-86
2021/11/20 00:22:29;;;;;;;23.70;12.20;;;;;;;;;;6207368;28;20050;-86
2021/11/20 00:25:52;;;;;;;23.25;10.25;;;;;;;;;;6199120;28;20052;-86
2021/11/20 00:32:03;;;;;;;19.77;9.55;;;;;;;;;;6198708;28;20068;-84
2021/11/20 00:35:08;;;;;;;22.67;10.98;;;;;;;;;;6182692;28;20057;-86
2021/11/20 00:38:12;;;;;;;23.33;11.15;;;;;;;;;;6205391;28;20561;-87
2021/11/20 00:41:20;;;;;;;22.52;12.07;;;;;;;;;;6192507;28;20053;-85
2021/11/20 00:44:22;;;;;;;24.48;11.70;;;;;;;;;;6192419;28;20555;-85
2021/11/20 00:47:25;;;;;;;24.23;12.05;;;;;;;;;;6171970;28;20046;-86
2021/11/20 00:50:27;;;;;;;20.70;11.40;;;;;;;;;;6189256;28;20057;-87
2021/11/20 00:53:30;;;;;;;25.10;11.65;;;;;;;;;;6187571;28;20049;-85
2021/11/20 00:56:33;;;;;;;23.88;11.10;;;;;;;;;;6185008;28;20053;-86
2021/11/20 00:59:35;;;;;;;28.45;13.73;;;;;;;;;;6190973;28;20049;-85
2021/11/20 01:02:37;;;;;;;22.30;12.65;;;;;;;;;;6197550;28;20547;-86
2021/11/20 01:05:39;;;;;;;28.55;15.57;;;;;;;;;;6186904;28;20582;-86
2021/11/20 01:08:45;;;;;;;24.98;14.07;;;;;;;;;;6203847;28;20518;-85
2021/11/20 01:12:05;;;;;;;32.45;14.02;;;;;;;;;;6176091;28;20046;-85
2021/11/20 01:15:12;;;;;;;27.70;14.40;;;;;;;;;;6199439;28;20176;-86
2021/11/20 01:18:16;;;;;;;26.30;13.63;;;;;;;;;;6191081;28;20065;-85
2021/11/20 01:21:19;;;;;;;24.27;12.43;;;;;;;;;;6191928;28;20046;-85
2021/11/20 01:24:21;;;;;;;26.50;12.18;;;;;;;;;;6213856;28;20053;-87
2021/11/20 01:27:25;;;;;;;25.15;12.38;;;;;;;;;;6206832;28;20056;-85
2021/11/20 01:30:41;;;;;;;24.55;11.65;;;;;;;;;;6177720;28;20057;-87
2021/11/20 01:33:46;;;;;;;25.75;11.98;;;;;;;;;;6173516;28;20233;-87
2021/11/20 01:36:48;;;;;;;23.65;11.45;;;;;;;;;;6165756;28;20056;-88
2021/11/20 01:39:50;;;;;;;26.73;12.48;;;;;;;;;;6167337;28;20049;-87
2021/11/20 01:43:05;;;;;;;26.07;11.70;;;;;;;;;;6181767;28;20060;-87
2021/11/20 01:46:17;;;;;;;24.58;11.65;;;;;;;;;;6211175;28;20503;-87
2021/11/20 01:49:23;;;;;;;20.13;10.13;;;;;;;;;;6195952;28;20061;-87
2021/11/20 01:52:46;;;;;;;24.58;11.07;;;;;;;;;;6178142;28;20056;-87
2021/11/20 01:56:03;;;;;;;21.70;10.90;;;;;;;;;;6194864;28;20168;-86
2021/11/20 01:59:25;;;;;;;24.95;11.75;;;;;;;;;;6204945;28;20056;-87
2021/11/20 02:03:11;;;;;;;23.58;11.65;;;;;;;;;;6161467;28;20060;-88
2021/11/20 02:06:38;;;;;;;27.73;10.77;;;;;;;;;;6199062;28;20588;-87
2021/11/20 02:10:09;;;;;;;21.75;10.63;;;;;;;;;;6170354;28;21468;-86
2021/11/20 02:13:23;;;;;;;26.70;12.13;;;;;;;;;;6194344;28;20042;-89
2021/11/20 02:16:40;;;;;;;23.23;11.27;;;;;;;;;;6201522;28;20038;-87
2021/11/20 02:19:45;;;;;;;24.13;11.07;;;;;;;;;;6198826;28;20056;-87
2021/11/20 02:22:47;;;;;;;22.95;11.35;;;;;;;;;;6177448;28;20123;-88
2021/11/20 02:25:53;;;;;;;21.15;9.90;;;;;;;;;;6200891;28;20072;-87
2021/11/20 02:29:06;;;;;;;22.58;10.80;;;;;;;;;;6197805;28;20042;-87
2021/11/20 02:32:28;;;;;;;18.88;9.07;;;;;;;;;;6189825;28;20061;-87
2021/11/20 02:35:42;;;;;;;23.13;10.32;;;;;;;;;;6193337;28;20137;-88
2021/11/20 02:39:07;;;;;;;21.60;10.93;;;;;;;;;;6200855;28;20085;-87
2021/11/20 02:42:13;;;;;;;23.38;10.73;;;;;;;;;;6176078;28;20043;-87
2021/11/20 02:45:27;;;;;;;22.30;11.30;;;;;;;;;;6187089;28;20034;-87
2021/11/20 02:48:30;;;;;;;21.92;10.43;;;;;;;;;;6178721;28;20050;-88
2021/11/20 02:51:40;;;;;;;21.65;10.77;;;;;;;;;;6197227;28;20046;-87
2021/11/20 02:54:52;;;;;;;20.55;11.10;;;;;;;;;;6215009;28;20066;-88
2021/11/20 02:57:56;;;;;;;25.40;11.02;;;;;;;;;;6194536;28;20042;-88
2021/11/20 03:01:03;;;;;;;25.40;12.43;;;;;;;;;;6190794;28;20411;-88
2021/11/20 03:04:08;;;;;;;26.35;12.02;;;;;;;;;;6206119;28;20042;-87
2021/11/20 03:07:10;;;;;;;25.70;12.38;;;;;;;;;;6205063;28;20129;-87
2021/11/20 03:10:22;;;;;;;24.43;11.57;;;;;;;;;;6197472;28;20061;-88
2021/11/20 03:13:31;;;;;;;24.23;11.43;;;;;;;;;;6170984;28;20053;-88
2021/11/20 03:16:57;;;;;;;18.58;9.63;;;;;;;;;;6189093;28;20038;-87
2021/11/20 03:20:01;;;;;;;19.88;10.13;;;;;;;;;;6162457;28;20042;-87
2021/11/20 03:23:13;;;;;;;19.92;9.32;;;;;;;;;;6186935;28;20050;-87
2021/11/20 03:26:16;;;;;;;16.75;8.88;;;;;;;;;;6210503;28;20060;-88
2021/11/20 03:29:18;;;;;;;13.40;7.60;;;;;;;;;;6190875;28;20049;-87
2021/11/20 03:32:20;;;;;;;19.77;9.82;;;;;;;;;;6180248;28;20042;-87
2021/11/20 03:35:23;;;;;;;20.05;9.88;;;;;;;;;;6206062;28;20128;-87
2021/11/20 03:38:28;;;;;;;17.85;9.57;;;;;;;;;;6213173;28;20038;-87
2021/11/20 03:41:39;;;;;;;17.05;8.05;;;;;;;;;;6203331;28;20122;-87
2021/11/20 03:44:41;;;;;;;14.85;8.05;;;;;;;;;;6191759;28;20042;-87
2021/11/20 03:47:43;;;;;;;13.68;8.30;;;;;;;;;;6197246;28;20412;-88
2021/11/20 03:50:46;;;;;;;18.73;8.60;;;;;;;;;;6191770;28;20046;-87
2021/11/20 03:53:48;;;;;;;15.98;8.93;;;;;;;;;;6199417;28;20046;-87
2021/11/20 03:56:50;;;;;;;14.05;7.65;;;;;;;;;;6195876;28;20057;-87
2021/11/20 03:59:51;;;;;;;12.80;7.78;;;;;;;;;;6195169;28;20368;-88
2021/11/20 04:02:54;;;;;;;12.43;7.35;;;;;;;;;;6162694;28;20055;-85
2021/11/20 04:05:58;;;;;;;15.95;7.97;;;;;;;;;;6174977;28;20046;-87
2021/11/20 04:09:03;;;;;;;13.63;7.45;;;;;;;;;;6171993;28;20059;-86
2021/11/20 04:12:05;;;;;;;11.45;6.95;;;;;;;;;;6168842;28;20046;-86
2021/11/20 04:15:11;;;;;;;10.18;5.60;;;;;;;;;;6199609;28;20048;-85
2021/11/20 04:18:13;;;;;;;9.15;5.70;;;;;;;;;;6179619;28;20042;-87
2021/11/20 04:21:16;;;;;;;14.30;7.45;;;;;;;;;;6199594;28;20428;-86
2021/11/20 04:24:19;;;;;;;17.88;9.13;;;;;;;;;;6207781;28;20464;-86
2021/11/20 04:27:50;;;;;;;19.55;9.25;;;;;;;;;;6148896;28;20065;-86
2021/11/20 04:31:10;;;;;;;18.25;9.45;;;;;;;;;;6190441;28;20107;-86
2021/11/20 04:34:12;;;;;;;16.40;9.02;;;;;;;;;;6237562;28;20054;-88
2021/11/20 04:37:14;;;;;;;16.02;7.60;;;;;;;;;;6218235;28;20046;-87
2021/11/20 04:40:17;;;;;;;8.10;5.80;;;;;;;;;;6184521;28;20054;-86
2021/11/20 04:43:28;;;;;;;11.10;6.20;;;;;;;;;;6185823;28;20038;-86
2021/11/20 04:46:30;;;;;;;7.45;5.03;;;;;;;;;;6192211;28;20042;-86
2021/11/20 04:49:33;;;;;;;10.13;5.63;;;;;;;;;;6222884;28;20078;-87
2021/11/20 04:52:36;;;;;;;7.43;5.25;;;;;;;;;;6207505;28;20052;-88
2021/11/20 04:55:37;;;;;;;8.88;5.88;;;;;;;;;;6183059;28;20047;-86
2021/11/20 04:58:44;;;;;;;9.40;5.57;;;;;;;;;;6182169;28;20126;-87
2021/11/20 05:01:46;;;;;;;8.30;5.10;;;;;;;;;;6181865;28;20046;-86
2021/11/20 05:04:48;;;;;;;7.70;5.05;;;;;;;;;;6173006;28;20152;-86
2021/11/20 05:07:52;;;;;;;6.88;4.68;;;;;;;;;;6174046;28;20066;-85
2021/11/20 05:10:55;;;;;;;7.03;4.80;;;;;;;;;;6198989;28;20503;-86
2021/11/20 05:13:58;;;;;;;6.60;4.22;;;;;;;;;;6189904;28;20045;-87
2021/11/20 05:17:01;;;;;;;55.03;23.17;;;;;;;;;;6199932;28;20042;-87
2021/11/20 05:20:05;;;;;;;104.93;49.00;;;;;;;;;;6170883;28;20908;-87
2021/11/20 05:23:07;;;;;;;115.55;47.72;;;;;;;;;;6189640;28;20062;-87
2021/11/20 05:26:12;;;;;;;;;;;;;;;;;;6205577;28;20551;-85
2021/11/20 05:32:35;;;;;;;12.43;7.72;;;;;;;;;;6216549;28;20039;-87
2021/11/20 05:35:38;;;;;;;7.88;5.07;;;;;;;;;;6185317;28;20109;-87
2021/11/20 05:38:41;;;;;;;6.90;4.90;;;;;;;;;;6192286;28;20048;-87
2021/11/20 05:41:45;;;;;;;6.50;4.80;;;;;;;;;;6186142;28;20050;-86
2021/11/20 05:44:47;;;;;;;8.38;5.22;;;;;;;;;;6186877;28;21059;-87
2021/11/20 05:47:52;;;;;;;6.15;4.18;;;;;;;;;;6199863;28;20042;-86
2021/11/20 05:50:53;;;;;;;6.25;4.90;;;;;;;;;;6214569;28;20129;-87
2021/11/20 05:53:55;;;;;;;7.85;5.22;;;;;;;;;;6201224;28;20050;-87
2021/11/20 05:56:57;;;;;;;7.15;4.60;;;;;;;;;;6188206;28;20050;-87
2021/11/20 06:00:15;;;;;;;7.60;5.03;;;;;;;;;;6214821;28;20058;-87
2021/11/20 06:03:28;;;;;;;98.13;47.10;;;;;;;;;;6202212;28;20042;-86
2021/11/20 06:06:34;;;;;;;41.95;24.02;;;;;;;;;;6186582;28;20046;-87
2021/11/20 06:09:36;;;;;;;9.27;6.53;;;;;;;;;;6185579;28;20041;-87
2021/11/20 06:12:41;;;;;;;11.77;6.95;;;;;;;;;;6207923;28;20401;-86
2021/11/20 06:15:44;;;;;;;9.27;6.22;;;;;;;;;;6185735;28;20046;-78
2021/11/20 06:18:45;;;;;;;10.65;6.63;;;;;;;;;;6157196;28;20061;-80
2021/11/20 06:21:47;;;;;;;8.57;6.22;;;;;;;;;;6163533;28;20050;-78
2021/11/20 06:24:53;;;;;;;8.25;5.88;;;;;;;;;;6166204;28;20054;-80
2021/11/20 06:27:57;;;;;;;11.27;6.78;;;;;;;;;;6167314;28;20392;-81
2021/11/20 06:30:59;;;;;;;35.70;19.42;;;;;;;;;;6192029;28;20058;-79
2021/11/20 06:34:04;;;;;;;54.22;30.50;;;;;;;;;;6183592;28;20047;-78
2021/11/20 06:37:26;;;;;;;11.68;7.80;;;;;;;;;;6185343;28;20058;-77
2021/11/20 06:40:36;;;;;;;10.52;6.68;;;;;;;;;;6179965;28;20050;-77
2021/11/20 06:43:38;;;;;;;40.92;24.20;;;;;;;;;;6182458;28;20580;-79
2021/11/20 06:46:41;;;;;;;50.80;25.00;;;;;;;;;;6182296;28;20050;-80
2021/11/20 06:49:44;;;;;;;116.35;46.55;;;;;;;;;;6183356;28;20042;-78
2021/11/20 06:52:46;;;;;;;20.15;11.02;;;;;;;;;;6168099;28;20042;-81
2021/11/20 06:56:27;;;;;;;15.32;8.07;;;;;;;;;;6185672;28;20027;-78
2021/11/20 07:03:57;;;;;;;17.65;9.52;;;;;;;;;;6167498;28;20043;-81
2021/11/20 07:07:04;;;;;;;18.35;10.23;;;;;;;;;;6175621;28;20085;-81
2021/11/20 07:10:10;;;;;;;16.23;9.70;;;;;;;;;;6170199;28;20049;-79
2021/11/20 07:13:20;;;;;;;20.88;10.30;;;;;;;;;;6186124;28;20462;-78
2021/11/20 07:16:25;;;;;;;18.85;10.57;;;;;;;;;;6184173;28;20042;-80
2021/11/20 07:19:30;;;;;;;128.73;41.55;;;;;;;;;;6186666;28;20042;-80
2021/11/20 07:23:07;;;;;;;17.98;10.10;;;;;;;;;;6165907;28;20165;-79
2021/11/20 07:26:09;;;;;;;18.33;10.13;;;;;;;;;;6158496;28;20053;-80
2021/11/20 07:29:12;;;;;;;18.75;10.80;;;;;;;;;;6184681;28;20042;-80
2021/11/20 07:32:35;;;;;;;18.73;10.13;;;;;;;;;;6199564;28;20043;-79
2021/11/20 07:36:04;;;;;;;21.40;11.75;;;;;;;;;;6176309;28;20053;-80
2021/11/20 07:39:10;;;;;;;21.33;10.88;;;;;;;;;;6170841;28;20945;-81
2021/11/20 07:42:12;;;;;;;19.05;10.80;;;;;;;;;;6169274;28;20062;-80
2021/11/20 07:45:34;;;;;;;19.20;11.48;;;;;;;;;;6180983;28;20043;-79
2021/11/20 07:48:41;;;;;;;21.52;11.52;;;;;;;;;;6170212;28;20047;-81
2021/11/20 07:51:48;;;;;;;18.73;13.13;;;;;;;;;;6150156;28;20174;-79
2021/11/20 07:54:51;;;;;;;18.42;10.35;;;;;;;;;;6161404;28;20054;-79
2021/11/20 07:58:17;;;;;;;17.85;9.55;;;;;;;;;;6182760;28;20050;-81
2021/11/20 08:01:21;;;;;;;;;;;;;;;;;;6173447;28;20046;-81
2021/11/20 08:04:23;;;;;;;;;;;;;;;;;;6173219;28;20069;-80
2021/11/20 08:07:48;;;;;;;;;;;;;;;;;;6178718;28;19922;-82
2021/11/20 08:10:55;;;;;;;17.98;10.07;;;;;;;;;;6170834;28;19926;-83
2021/11/20 08:13:57;;;;;;;18.40;10.38;;;;;;;;;;6181195;28;20047;-77
2021/11/20 08:17:14;;;;;;;16.60;9.20;;;;;;;;;;6165054;28;20400;-80
2021/11/20 08:20:38;;;;;;;21.75;10.60;;;;;;;;;;6155658;28;20077;-80
2021/11/20 08:23:54;;;;;;;24.67;12.70;;;;;;;;;;6186525;28;20050;-81
2021/11/20 08:26:56;;;;;;;22.15;11.20;;;;;;;;;;6177766;28;20050;-79
2021/11/20 08:29:59;;;;;;;24.42;12.20;;;;;;;;;;6155488;28;20050;-81
2021/11/20 08:33:04;;;;;;;23.23;12.95;;;;;;;;;;6149335;28;20266;-81
2021/11/20 08:36:12;;;;;;;21.63;11.60;;;;;;;;;;6158334;28;20061;-80
2021/11/20 08:39:34;;;;;;;25.95;13.18;;;;;;;;;;6162380;28;20058;-82
2021/11/20 08:42:36;;;;;;;21.40;10.77;;;;;;;;;;6143790;28;20061;-80
2021/11/20 08:45:43;;;;;;;22.05;11.02;;;;;;;;;;6158459;28;20587;-82
2021/11/20 08:48:45;;;;;;;21.55;11.60;;;;;;;;;;6191777;28;20042;-80
2021/11/20 08:51:50;;;;;;;21.33;11.48;;;;;;;;;;6184514;28;20050;-81
2021/11/20 08:54:56;;;;;;;20.45;10.43;;;;;;;;;;6184322;28;20054;-81
2021/11/20 08:57:59;;;;;;;21.83;10.70;;;;;;;;;;6180631;28;20053;-81
2021/11/20 09:01:11;;;;;;;24.38;11.18;;;;;;;;;;6167400;28;20047;-83
2021/11/20 09:04:22;;;;;;;25.73;11.68;;;;;;;;;;6163433;28;20054;-82
2021/11/20 09:07:27;;;;;;;25.05;12.10;;;;;;;;;;6158596;28;20160;-82
2021/11/20 09:10:38;;;;;;;25.40;10.95;;;;;;;;;;6194268;28;20065;-80
2021/11/20 09:13:57;;;;;;;26.45;12.32;;;;;;;;;;6174629;28;20506;-82
2021/11/20 09:17:04;;;;;;;27.20;10.75;;;;;;;;;;6185190;28;20053;-81
2021/11/20 09:20:07;;;;;;;25.70;11.43;;;;;;;;;;6169493;28;20148;-79
2021/11/20 09:23:10;;;;;;;28.67;11.95;;;;;;;;;;6177024;28;20073;-80
2021/11/20 09:26:34;;;;;;;27.40;11.68;;;;;;;;;;6158558;28;20049;-79
2021/11/20 09:29:38;;;;;;;31.63;12.50;;;;;;;;;;6168796;28;20042;-80
2021/11/20 09:32:40;;;;;;;24.80;11.17;;;;;;;;;;6173139;28;20078;-80
2021/11/20 09:35:50;;;;;;;26.15;11.77;;;;;;;;;;6175990;28;20450;-81
2021/11/20 09:39:24;;;;;;;28.42;12.05;;;;;;;;;;6170125;28;20629;-79
2021/11/20 09:42:51;;;;;;;25.73;11.35;;;;;;;;;;6175659;28;20054;-81
2021/11/20 09:46:04;;;;;;;24.58;10.55;;;;;;;;;;6172874;28;20043;-81
2021/11/20 09:49:15;;;;;;;27.92;11.95;;;;;;;;;;6174408;28;20046;-80
2021/11/20 09:52:18;;;;;;;28.17;11.65;;;;;;;;;;6174735;28;20069;-80
2021/11/20 09:55:32;;;;;;;27.20;11.38;;;;;;;;;;6175818;28;20046;-81
2021/11/20 09:58:41;;;;;;;28.40;11.98;;;;;;;;;;6162265;28;20054;-81
2021/11/20 10:01:50;;;;;;;24.65;11.55;;;;;;;;;;6190393;28;20108;-80
2021/11/20 10:05:14;;;;;;;23.73;10.50;;;;;;;;;;6182668;28;20722;-80
2021/11/20 10:08:21;;;;;;;;;;;;;;;;;;6176203;28;20423;-80
2021/11/20 10:11:44;;;;;;;28.40;11.10;;;;;;;;;;6195065;28;19932;-81
2021/11/20 10:14:48;;;;;;;27.38;12.70;;;;;;;;;;6194069;28;20042;-81
2021/11/20 10:18:12;;;;;;;27.50;12.55;;;;;;;;;;6194410;28;20129;-82
2021/11/20 10:21:21;;;;;;;24.33;11.05;;;;;;;;;;6176967;28;20061;-80
2021/11/20 10:24:36;;;;;;;21.63;10.68;;;;;;;;;;6174335;28;20134;-79
2021/11/20 10:27:52;;;;;;;25.13;10.63;;;;;;;;;;6193685;28;20057;-79
2021/11/20 10:31:02;;;;;;;24.45;11.18;;;;;;;;;;6187928;28;20085;-79
2021/11/20 10:34:23;;;;;;;26.30;12.05;;;;;;;;;;6174371;28;20114;-79
2021/11/20 10:37:41;;;;;;;30.10;12.20;;;;;;;;;;6188216;28;20677;-81
2021/11/20 10:40:52;;;;;;;27.55;11.27;;;;;;;;;;6187857;28;20069;-79
2021/11/20 10:44:06;;;;;;;25.58;10.68;;;;;;;;;;6174142;28;20141;-81
2021/11/20 10:47:11;;;;;;;26.90;11.77;;;;;;;;;;6170314;28;20054;-78
2021/11/20 10:50:37;;;;;;;25.38;11.13;;;;;;;;;;6162395;28;20050;-80
2021/11/20 10:53:48;;;;;;;26.40;11.48;;;;;;;;;;6193894;28;20063;-81
2021/11/20 10:57:09;;;;;;;25.92;11.27;;;;;;;;;;6194936;28;20491;-79
2021/11/20 11:00:19;;;;;;;23.50;10.38;;;;;;;;;;6195159;28;20054;-80
2021/11/20 11:03:42;;;;;;;27.88;12.13;;;;;;;;;;6180832;28;20125;-79
2021/11/20 11:07:07;;;;;;;27.80;11.68;;;;;;;;;;6162583;28;20046;-79
2021/11/20 11:10:15;;;;;;;27.08;11.18;;;;;;;;;;6170799;28;20106;-81
2021/11/20 11:13:54;;;;;;;25.45;10.73;;;;;;;;;;6169458;28;20058;-80
2021/11/20 11:17:07;;;;;;;24.35;10.88;;;;;;;;;;6184496;28;20063;-81
2021/11/20 11:20:31;;;;;;;24.88;10.98;;;;;;;;;;6169214;28;20039;-81
2021/11/20 11:24:00;;;;;;;23.10;9.90;;;;;;;;;;6166778;28;20049;-81
2021/11/20 11:27:19;;;;;;;21.55;10.10;;;;;;;;;;6163394;28;20077;-78
2021/11/20 11:30:31;;;;;;;25.90;11.20;;;;;;;;;;6185866;28;20054;-81
2021/11/20 11:33:35;;;;;;;24.38;10.18;;;;;;;;;;6183864;28;20055;-81
2021/11/20 11:36:46;;;;;;;21.42;10.07;;;;;;;;;;6168086;28;20070;-80
2021/11/20 11:39:52;;;;;;;23.65;10.15;;;;;;;;;;6136143;28;20129;-80
2021/11/20 11:43:14;;;;;;;29.00;11.48;;;;;;;;;;6164683;28;20114;-81
2021/11/20 11:46:29;;;;;;;26.85;10.57;;;;;;;;;;6136966;28;20174;-79
2021/11/20 11:49:51;;;;;;;25.20;10.93;;;;;;;;;;6175299;28;20068;-79
2021/11/20 11:52:57;;;;;;;24.30;10.43;;;;;;;;;;6179852;28;20133;-81
2021/11/20 11:56:11;;;;;;;23.15;9.52;;;;;;;;;;6179599;28;20043;-81
2021/11/20 11:59:35;;;;;;;23.20;9.82;;;;;;;;;;6169141;28;20134;-79
2021/11/20 12:02:36;;;;;;;25.83;11.50;;;;;;;;;;6169361;28;20788;-81
2021/11/20 12:05:46;;;;;;;25.15;10.25;;;;;;;;;;6165222;28;20076;-80
2021/11/20 12:08:52;;;;;;;23.80;10.32;;;;;;;;;;6168563;28;20092;-81
2021/11/20 12:12:06;;;;;;;22.23;9.82;;;;;;;;;;6166608;28;20054;-80
2021/11/20 12:15:17;;;;;;;22.48;10.02;;;;;;;;;;6163999;28;20058;-80
2021/11/20 12:18:28;;;;;;;22.38;10.32;;;;;;;;;;6195935;28;20114;-80
2021/11/20 12:21:47;;;;;;;23.67;10.43;;;;;;;;;;6179112;28;20746;-80
2021/11/20 12:25:06;;;;;;;21.55;9.75;;;;;;;;;;6162697;28;20130;-80
2021/11/20 12:28:10;;;;;;;20.83;8.73;;;;;;;;;;6167851;28;20050;-79
2021/11/20 12:31:23;;;;;;;18.65;8.73;;;;;;;;;;6166435;28;20429;-79
2021/11/20 12:34:34;;;;;;;;;;;;;;;;;;6166071;28;20047;-81
2021/11/20 12:38:14;;;;;;;20.20;8.52;;;;;;;;;;6146434;28;19961;-79
2021/11/20 12:41:25;;;;;;;22.25;9.93;;;;;;;;;;6179387;28;20493;-81
2021/11/20 12:45:04;;;;;;;23.58;10.52;;;;;;;;;;6182298;28;20043;-79
2021/11/20 12:48:33;;;;;;;21.42;10.07;;;;;;;;;;6169554;28;20093;-81
2021/11/20 12:52:00;;;;;;;22.60;9.73;;;;;;;;;;6171483;28;20129;-81
2021/11/20 12:55:29;;;;;;;20.90;9.88;;;;;;;;;;6175757;28;20756;-80
2021/11/20 12:58:37;;;;;;;21.70;9.82;;;;;;;;;;6165634;28;20046;-82
2021/11/20 13:01:45;;;;;;;21.42;9.73;;;;;;;;;;6196462;28;20047;-82
2021/11/20 13:04:50;;;;;;;20.73;9.80;;;;;;;;;;6179912;28;20121;-81
2021/11/20 13:07:58;;;;;;;23.05;10.60;;;;;;;;;;6203260;28;20045;-80
2021/11/20 13:11:09;;;;;;;22.38;10.52;;;;;;;;;;6185677;28;20069;-79
2021/11/20 13:14:21;;;;;;;22.33;10.40;;;;;;;;;;6193639;28;20046;-79
2021/11/20 13:17:27;;;;;;;21.13;10.00;;;;;;;;;;6181222;28;20357;-81
2021/11/20 13:21:13;;;;;;;21.38;9.70;;;;;;;;;;6154303;28;20522;-78
2021/11/20 13:24:19;;;;;;;23.35;9.77;;;;;;;;;;6187425;28;20047;-81
2021/11/20 13:27:36;;;;;;;21.13;9.80;;;;;;;;;;6178613;28;20385;-82
2021/11/20 13:30:41;;;;;;;20.42;9.60;;;;;;;;;;6195334;28;20447;-81
2021/11/20 13:33:47;;;;;;;20.23;9.85;;;;;;;;;;6186812;28;20049;-81
2021/11/20 13:36:48;;;;;;;21.08;9.85;;;;;;;;;;6179741;28;20157;-82
2021/11/20 13:39:51;;;;;;;20.08;9.18;;;;;;;;;;6171323;28;20054;-80
2021/11/20 13:42:53;;;;;;;22.00;9.38;;;;;;;;;;6178755;28;20053;-78
2021/11/20 13:45:58;;;;;;;21.10;9.30;;;;;;;;;;6176073;28;20059;-80
2021/11/20 13:49:04;;;;;;;22.60;9.90;;;;;;;;;;6175329;28;20118;-80
2021/11/20 13:52:14;;;;;;;20.80;9.40;;;;;;;;;;6176515;28;20047;-79
2021/11/20 13:55:18;;;;;;;18.60;9.68;;;;;;;;;;6176342;28;20043;-81
2021/11/20 13:58:32;;;;;;;19.83;9.20;;;;;;;;;;6174651;28;20739;-80
2021/11/20 14:01:42;;;;;;;19.85;9.48;;;;;;;;;;6176729;28;20126;-78
2021/11/20 14:04:45;;;;;;;19.90;9.15;;;;;;;;;;6175892;28;20159;-79
2021/11/20 14:07:47;;;;;;;17.00;8.73;;;;;;;;;;6174638;28;20042;-79
2021/11/20 14:11:02;;;;;;;18.58;8.85;;;;;;;;;;6175874;28;20042;-79
2021/11/20 14:14:03;;;;;;;20.10;9.10;;;;;;;;;;6172029;28;20126;-79
2021/11/20 14:17:23;;;;;;;17.92;9.23;;;;;;;;;;6188826;28;20047;-77
2021/11/20 14:20:25;;;;;;;17.02;9.02;;;;;;;;;;6188361;28;20042;-80
2021/11/20 14:23:28;;;;;;;19.48;9.35;;;;;;;;;;6181282;28;20129;-78
2021/11/20 14:26:44;;;;;;;20.17;11.20;;;;;;;;;;6134336;28;20053;-79
2021/11/20 14:29:52;;;;;;;19.98;10.07;;;;;;;;;;6189141;28;20074;-78
2021/11/20 14:33:05;;;;;;;20.63;11.10;;;;;;;;;;6172759;28;20467;-78
2021/11/20 14:36:06;;;;;;;18.45;9.35;;;;;;;;;;6172946;28;20055;-80
2021/11/20 14:39:11;;;;;;;17.92;9.63;;;;;;;;;;6173238;28;20056;-78
2021/11/20 14:42:14;;;;;;;17.88;9.07;;;;;;;;;;6172621;28;20046;-79
2021/11/20 14:45:24;;;;;;;20.65;10.13;;;;;;;;;;6172219;28;20068;-79
2021/11/20 14:48:32;;;;;;;19.00;9.52;;;;;;;;;;6173427;28;20478;-78
2021/11/20 14:51:40;;;;;;;17.67;8.50;;;;;;;;;;6173349;28;20126;-80
2021/11/20 14:54:50;;;;;;;14.38;7.93;;;;;;;;;;6173474;28;20043;-80
2021/11/20 14:57:54;;;;;;;16.17;8.32;;;;;;;;;;6172340;28;20053;-77
2021/11/20 15:00:58;;;;;;;17.40;8.77;;;;;;;;;;6174154;28;20054;-77
2021/11/20 15:04:03;;;;;;;17.60;9.02;;;;;;;;;;6170452;28;20702;-80
2021/11/20 15:07:06;;;;;;;16.75;8.02;;;;;;;;;;6194732;28;20105;-79
2021/11/20 15:10:07;;;;;;;17.85;8.32;;;;;;;;;;6197628;28;20050;-80
2021/11/20 15:13:09;;;;;;;14.88;8.68;;;;;;;;;;6180172;28;20883;-79
2021/11/20 15:16:11;;;;;;;16.27;8.48;;;;;;;;;;6174570;28;20062;-79
2021/11/20 15:19:18;;;;;;;13.60;7.88;;;;;;;;;;6174103;28;20070;-79
2021/11/20 15:22:20;;;;;;;14.40;7.40;;;;;;;;;;6172328;28;20476;-80
2021/11/20 15:25:22;;;;;;;15.07;7.97;;;;;;;;;;6178640;28;20049;-80
2021/11/20 15:28:23;;;;;;;16.80;8.50;;;;;;;;;;6159653;28;20047;-78
2021/11/20 15:31:25;;;;;;;17.95;8.93;;;;;;;;;;6170517;28;20093;-80
2021/11/20 15:34:27;;;;;;;16.63;7.93;;;;;;;;;;6181191;28;20496;-78
2021/11/20 15:37:29;;;;;;;17.50;8.60;;;;;;;;;;6178967;28;20416;-81
2021/11/20 15:40:33;;;;;;;15.60;8.47;;;;;;;;;;6179058;28;20066;-78
2021/11/20 15:43:37;;;;;;;17.33;7.78;;;;;;;;;;6199556;28;20061;-81
2021/11/20 15:46:39;;;;;;;17.17;8.20;;;;;;;;;;6209138;28;20053;-79
2021/11/20 15:49:41;;;;;;;16.85;8.65;;;;;;;;;;6178453;28;20133;-80
2021/11/20 15:52:44;;;;;;;19.90;8.75;;;;;;;;;;6176304;28;20053;-80
2021/11/20 15:55:46;;;;;;;16.23;8.77;;;;;;;;;;6179373;28;20044;-78
2021/11/20 15:58:55;;;;;;;18.92;9.48;;;;;;;;;;6198966;28;20046;-80
2021/11/20 16:01:56;;;;;;;24.92;9.60;;;;;;;;;;6194348;28;20046;-77
2021/11/20 16:04:59;;;;;;;18.40;9.50;;;;;;;;;;6191253;28;20050;-81
2021/11/20 16:08:01;;;;;;;20.13;8.85;;;;;;;;;;6170497;28;20529;-80
2021/11/20 16:11:03;;;;;;;19.45;9.00;;;;;;;;;;6186848;28;20035;-79
2021/11/20 16:14:05;;;;;;;18.27;9.15;;;;;;;;;;6184494;28;20133;-81
2021/11/20 16:17:07;;;;;;;18.48;8.57;;;;;;;;;;6168057;28;20047;-78
2021/11/20 16:20:09;;;;;;;15.90;7.78;;;;;;;;;;6166004;28;20133;-81
2021/11/20 16:23:11;;;;;;;18.58;9.93;;;;;;;;;;6174989;28;20070;-80
2021/11/20 16:26:13;;;;;;;18.95;8.60;;;;;;;;;;6167812;28;20423;-79
2021/11/20 16:29:15;;;;;;;18.25;8.80;;;;;;;;;;6148369;28;20043;-78
2021/11/20 16:32:18;;;;;;;19.80;8.95;;;;;;;;;;6150252;28;20043;-80
2021/11/20 16:35:20;;;;;;;;;;;;;;;;;;6153937;28;20576;-80
2021/11/20 16:38:22;;;;;;;18.30;8.32;;;;;;;;;;6172562;28;19997;-81
2021/11/20 16:41:30;;;;;;;18.55;8.43;;;;;;;;;;6163215;28;20054;-80
2021/11/20 16:44:32;;;;;;;22.30;8.75;;;;;;;;;;6174978;28;20045;-80
2021/11/20 16:47:34;;;;;;;18.85;9.30;;;;;;;;;;6180135;28;20067;-78
2021/11/20 16:51:23;;;;;;;19.73;9.18;;;;;;;;;;6169479;28;20051;-81
2021/11/20 16:54:02;;;;;;;19.05;8.32;;;;;;;;;;6161718;28;20117;-81
2021/11/20 16:57:05;;;;;;;;;;;;;;;;;;6161930;28;20106;-81
2021/11/20 17:00:08;;;;;;;17.50;7.43;;;;;;;;;;6157806;28;19926;-80
2021/11/20 17:03:11;;;;;;;;;;;;;;;;;;6156398;28;20035;-80
2021/11/20 17:06:12;;;;;;;;;;;;;;;;;;6175388;28;19922;-79
2021/11/20 17:09:14;;;;;;;;;;;;;;;;;;6207748;28;19925;-80
2021/11/20 17:12:16;;;;;;;;;;;;;;;;;;6172534;28;20016;-80
2021/11/20 17:15:18;;;;;;;;;;;;;;;;;;6159275;28;19976;-79
2021/11/20 17:18:19;;;;;;;;;;;;;;;;;;6188634;28;20763;-81
2021/11/20 17:21:21;;;;;;;;;;;;;;;;;;6191960;28;19989;-79
2021/11/20 17:24:23;;;;;;;;;;;;;;;;;;6193520;28;19932;-79
2021/11/20 17:27:25;;;;;;;;;;;;;;;;;;6174611;28;20008;-79
2021/11/20 17:30:27;;;;;;;;;;;;;;;;;;6190588;28;19932;-81
2021/11/20 17:33:29;;;;;;;;;;;;;;;;;;6193721;28;20459;-83
2021/11/20 17:36:31;;;;;;;;;;;;;;;;;;6175579;28;19932;-81
2021/11/20 17:39:32;;;;;;;;;;;;;;;;;;6195166;28;19932;-79
2021/11/20 17:42:34;;;;;;;;;;;;;;;;;;6205402;28;19936;-81
2021/11/20 17:45:35;;;;;;;;;;;;;;;;;;6220498;28;19921;-81
2021/11/20 17:48:37;;;;;;;;;;;;;;;;;;6187905;28;19921;-80
2021/11/20 17:51:39;;;;;;;;;;;;;;;;;;6204836;28;19921;-78
2021/11/20 17:54:40;;;;;;;;;;;;;;;;;;6193425;28;19932;-80
2021/11/20 17:57:42;;;;;;;;;;;;;;;;;;6167324;28;19933;-80
2021/11/20 18:00:44;;;;;;;;;;;;;;;;;;6196071;28;19972;-78
2021/11/20 18:03:46;;;;;;;;;;;;;;;;;;6197691;28;19929;-79
2021/11/20 18:06:49;;;;;;;;;;;;;;;;;;6179605;28;19989;-78
2021/11/20 18:09:54;;;;;;;;;;;;;;;;;;6163718;28;20008;-78
2021/11/20 18:12:55;;;;;;;;;;;;;;;;;;6152822;28;19961;-80
2021/11/20 18:15:57;;;;;;;;;;;;;;;;;;6178984;28;19922;-81
2021/11/20 18:18:58;;;;;;;;;;;;;;;;;;6196887;28;20616;-78
2021/11/20 18:22:00;;;;;;;;;;;;;;;;;;6160080;28;20008;-79
2021/11/20 18:25:02;;;;;;;;;;;;;;;;;;6187210;28;19926;-79
2021/11/20 18:28:07;;;;;;;;;;;;;;;;;;6169263;28;19978;-80
2021/11/20 18:31:09;;;;;;;;;;;;;;;;;;6200572;28;19956;-79
2021/11/20 18:34:10;;;;;;;;;;;;;;;;;;6200634;28;19928;-78
2021/11/20 18:37:12;;;;;;;;;;;;;;;;;;6181326;28;19922;-78
2021/11/20 18:40:13;;;;;;;;;;;;;;;;;;6181581;28;19932;-78
2021/11/20 18:43:15;;;;;;;;;;;;;;;;;;6197761;28;19926;-79
2021/11/20 18:46:16;;;;;;;;;;;;;;;;;;6165813;28;20005;-75
2021/11/20 18:49:18;;;;;;;;;;;;;;;;;;6150774;28;20714;-78
2021/11/20 18:52:20;;;;;;;;;;;;;;;;;;6151556;28;20299;-79
2021/11/20 18:55:21;;;;;;;;;;;;;;;;;;6150609;28;19998;-79